createdAt,value
2023-01-25T00:01:06.447Z,3.53
2023-01-25T00:04:07.872Z,3.52
2023-01-25T00:07:09.318Z,3.54
2023-01-25T00:10:11.101Z,3.59
2023-01-25T00:13:12.499Z,3.52
2023-01-25T00:16:14.074Z,3.49
2023-01-25T00:19:15.592Z,3.55
2023-01-25T00:22:17.015Z,3.50
2023-01-25T00:25:18.405Z,3.51
2023-01-25T00:28:19.789Z,3.47
2023-01-25T00:31:40.704Z,3.47
2023-01-25T00:34:47.614Z,3.41
2023-01-25T00:37:52.805Z,3.42
2023-01-25T00:40:54.275Z,3.44
2023-01-25T00:43:56.045Z,3.53
2023-01-25T00:46:57.523Z,3.59
2023-01-25T00:49:58.917Z,3.61
2023-01-25T00:53:00.311Z,3.60
2023-01-25T00:56:01.894Z,3.56
2023-01-25T00:59:04.994Z,3.58
2023-01-25T01:02:07.225Z,3.60
2023-01-25T01:05:09.404Z,3.62
2023-01-25T01:08:13.027Z,3.65
2023-01-25T01:11:14.550Z,3.64
2023-01-25T01:14:16.035Z,3.64
2023-01-25T01:17:17.495Z,3.65
2023-01-25T01:20:20.703Z,3.55
2023-01-25T01:23:22.109Z,3.57
2023-01-25T01:26:23.909Z,3.60
2023-01-25T01:29:25.413Z,3.57
2023-01-25T01:32:27.112Z,3.59
2023-01-25T01:35:29.425Z,3.63
2023-01-25T01:38:30.926Z,3.63
2023-01-25T01:41:32.385Z,3.64
2023-01-25T01:44:52.699Z,3.68
2023-01-25T01:47:56.229Z,3.67
2023-01-25T01:51:02.806Z,3.74
2023-01-25T01:54:11.493Z,3.67
2023-01-25T01:57:16.216Z,3.68
2023-01-25T02:00:26.303Z,3.70
2023-01-25T02:03:29.933Z,3.71
2023-01-25T02:06:39.575Z,3.76
2023-01-25T02:09:41.803Z,3.72
2023-01-25T02:12:44.460Z,3.67
2023-01-25T02:15:49.385Z,3.67
2023-01-25T02:18:53.184Z,3.60
2023-01-25T02:21:57.961Z,3.49
2023-01-25T02:25:10.449Z,3.51
2023-01-25T02:28:30.056Z,3.49
2023-01-25T02:31:32.204Z,3.43
2023-01-25T02:34:36.190Z,3.37
2023-01-25T02:37:38.409Z,3.38
2023-01-25T02:40:47.514Z,3.42
2023-01-25T02:43:49.223Z,3.43
2023-01-25T02:46:53.606Z,3.40
2023-01-25T02:49:55.092Z,3.51
2023-01-25T02:52:56.551Z,3.46
2023-01-25T02:55:58.003Z,3.43
2023-01-25T02:58:59.688Z,3.47
2023-01-25T03:02:01.233Z,3.43
2023-01-25T03:05:04.443Z,3.36
2023-01-25T03:08:06.326Z,3.34
2023-01-25T03:11:08.400Z,3.34
2023-01-25T03:14:11.056Z,3.42
2023-01-25T03:17:12.617Z,3.43
2023-01-25T03:20:14.540Z,3.29
2023-01-25T03:23:18.314Z,3.32
2023-01-25T03:26:21.880Z,3.30
2023-01-25T03:29:37.186Z,3.39
2023-01-25T03:32:43.932Z,3.38
2023-01-25T03:35:56.070Z,3.40
2023-01-25T03:38:57.783Z,3.30
2023-01-25T03:41:59.258Z,3.25
2023-01-25T03:45:00.843Z,3.27
2023-01-25T03:48:03.803Z,3.27
2023-01-25T03:51:05.420Z,3.19
2023-01-25T03:54:08.275Z,3.16
2023-01-25T03:57:10.609Z,3.20
2023-01-25T04:00:23.032Z,3.12
2023-01-25T04:03:33.383Z,3.15
2023-01-25T04:06:35.060Z,3.07
2023-01-25T04:09:37.491Z,3.12
2023-01-25T04:12:41.311Z,3.13
2023-01-25T04:15:43.024Z,3.06
2023-01-25T04:18:54.130Z,3.14
2023-01-25T04:21:55.602Z,3.08
2023-01-25T04:25:03.057Z,3.01
2023-01-25T04:28:05.446Z,3.02
2023-01-25T04:31:07.843Z,3.03
2023-01-25T04:34:14.343Z,3.07
2023-01-25T04:37:16.278Z,2.99
2023-01-25T04:40:27.109Z,2.98
2023-01-25T04:43:28.606Z,2.92
2023-01-25T04:46:34.612Z,2.96
2023-01-25T04:49:36.615Z,2.94
2023-01-25T04:52:38.402Z,2.92
2023-01-25T04:55:40.046Z,2.88
2023-01-25T04:58:43.246Z,2.89
2023-01-25T05:01:45.541Z,2.82
2023-01-25T05:04:46.962Z,2.82
2023-01-25T05:07:48.822Z,2.87
2023-01-25T05:10:50.461Z,2.78
2023-01-25T05:14:05.266Z,2.75
2023-01-25T05:17:08.695Z,2.72
2023-01-25T05:20:11.573Z,2.70
2023-01-25T05:23:13.183Z,2.74
2023-01-25T05:26:33.328Z,2.80
2023-01-25T05:29:40.497Z,2.78
2023-01-25T05:32:43.369Z,2.77
2023-01-25T05:35:44.779Z,2.75
2023-01-25T05:38:46.585Z,2.68
2023-01-25T05:41:48.901Z,2.68
2023-01-25T05:44:50.518Z,2.61
2023-01-25T05:47:54.885Z,2.67
2023-01-25T05:50:59.534Z,2.64
2023-01-25T05:54:06.767Z,2.65
2023-01-25T05:57:09.304Z,2.61
2023-01-25T06:00:11.789Z,2.59
2023-01-25T06:03:16.522Z,2.67
2023-01-25T06:06:18.705Z,2.62
2023-01-25T06:09:20.808Z,2.60
2023-01-25T06:12:22.448Z,2.57
2023-01-25T06:15:24.919Z,2.62
2023-01-25T06:18:34.502Z,2.59
2023-01-25T06:21:59.154Z,2.60
2023-01-25T06:25:00.542Z,2.65
2023-01-25T06:28:02.059Z,2.61
2023-01-25T06:31:12.156Z,2.61
2023-01-25T06:34:13.568Z,2.65
2023-01-25T06:37:15.274Z,2.58
2023-01-25T06:40:17.346Z,2.68
2023-01-25T06:43:18.759Z,2.60
2023-01-25T06:46:20.291Z,2.60
2023-01-25T06:49:21.820Z,2.59
2023-01-25T06:52:23.282Z,2.60
2023-01-25T06:55:24.814Z,2.62
2023-01-25T06:58:27.777Z,2.70
2023-01-25T07:01:30.352Z,2.66
2023-01-25T07:04:31.996Z,2.66
2023-01-25T07:07:33.398Z,2.63
2023-01-25T07:10:34.820Z,2.55
2023-01-25T07:13:36.506Z,2.60
2023-01-25T07:16:38.504Z,2.60
2023-01-25T07:19:39.947Z,2.53
2023-01-25T07:22:41.335Z,2.59
2023-01-25T07:25:50.440Z,2.64
2023-01-25T07:28:53.435Z,2.56
2023-01-25T07:31:54.872Z,2.50
2023-01-25T07:34:56.270Z,2.49
2023-01-25T07:37:57.822Z,2.44
2023-01-25T07:40:59.268Z,2.38
2023-01-25T07:44:00.727Z,2.39
2023-01-25T07:47:10.235Z,2.40
2023-01-25T07:50:11.937Z,2.40
2023-01-25T07:53:13.739Z,2.39
2023-01-25T07:56:15.128Z,2.38
2023-01-25T07:59:16.738Z,2.33
2023-01-25T08:02:18.131Z,2.34
2023-01-25T08:05:19.747Z,2.34
2023-01-25T08:08:21.278Z,2.42
2023-01-25T08:11:25.782Z,2.41
2023-01-25T08:14:27.292Z,2.46
2023-01-25T08:17:32.497Z,2.52
2023-01-25T08:20:33.880Z,2.54
2023-01-25T08:23:35.659Z,2.55
2023-01-25T08:26:37.737Z,2.47
2023-01-25T08:29:39.175Z,2.48
2023-01-25T08:32:40.613Z,2.53
2023-01-25T08:35:42.009Z,2.47
2023-01-25T08:38:43.627Z,2.50
2023-01-25T08:41:45.569Z,2.49
2023-01-25T08:44:46.988Z,2.48
2023-01-25T08:47:48.539Z,2.43
2023-01-25T08:50:49.992Z,2.46
2023-01-25T08:53:51.616Z,2.41
2023-01-25T08:56:53.040Z,2.52
2023-01-25T08:59:54.425Z,2.69
2023-01-25T09:02:55.806Z,2.64
2023-01-25T09:05:57.554Z,2.61
2023-01-25T09:09:00.259Z,2.58
2023-01-25T09:12:01.778Z,2.57
2023-01-25T09:15:04.241Z,2.61
2023-01-25T09:18:06.885Z,2.56
2023-01-25T09:21:14.057Z,2.60
2023-01-25T09:24:15.488Z,2.59
2023-01-25T09:27:16.943Z,2.47
2023-01-25T09:30:19.420Z,2.45
2023-01-25T09:33:33.193Z,2.45
2023-01-25T09:36:34.591Z,2.55
2023-01-25T09:39:36.023Z,2.55
2023-01-25T09:43:05.770Z,2.58
2023-01-25T09:46:22.177Z,2.62
2023-01-25T09:49:58.246Z,2.65
2023-01-25T09:53:12.188Z,2.74
2023-01-25T09:56:22.568Z,2.67
2023-01-25T09:59:30.562Z,2.63
2023-01-25T10:02:53.818Z,2.63
2023-01-25T10:05:59.603Z,2.67
2023-01-25T10:09:11.403Z,2.70
2023-01-25T10:12:15.772Z,2.69
2023-01-25T10:15:20.427Z,2.71
2023-01-25T10:18:31.009Z,2.78
2023-01-25T10:21:40.929Z,2.79
2023-01-25T10:25:13.684Z,2.76
2023-01-25T10:28:30.312Z,2.83
2023-01-25T10:31:53.285Z,2.89
2023-01-25T10:34:58.592Z,2.90
2023-01-25T10:38:06.783Z,2.79
2023-01-25T10:41:28.350Z,2.71
2023-01-25T10:44:30.041Z,2.69
2023-01-25T10:47:37.166Z,2.72
2023-01-25T10:50:38.487Z,2.78
2023-01-25T10:53:40.104Z,2.81
2023-01-25T10:56:43.715Z,2.85
2023-01-25T10:59:48.068Z,2.80
2023-01-25T11:02:49.582Z,2.74
2023-01-25T11:05:55.049Z,2.76
2023-01-25T11:08:56.481Z,2.80
2023-01-25T11:12:00.674Z,2.83
2023-01-25T11:15:23.354Z,2.83
2023-01-25T11:18:33.467Z,2.82
2023-01-25T11:21:35.355Z,2.93
2023-01-25T11:24:36.983Z,2.92
2023-01-25T11:27:38.375Z,2.92
2023-01-25T11:30:39.946Z,3.07
2023-01-25T11:33:41.978Z,3.09
2023-01-25T11:37:04.876Z,3.08
2023-01-25T11:40:16.156Z,3.13
2023-01-25T11:43:38.203Z,3.15
2023-01-25T11:46:57.911Z,3.18
2023-01-25T11:50:05.469Z,3.20
2023-01-25T11:53:35.252Z,3.14
2023-01-25T11:56:42.569Z,3.19
2023-01-25T12:00:18.956Z,3.31
2023-01-25T12:04:01.891Z,3.23
2023-01-25T12:07:07.914Z,3.26
2023-01-25T12:10:47.034Z,3.32
2023-01-25T12:14:24.508Z,3.29
2023-01-25T12:17:50.554Z,3.24
2023-01-25T12:21:26.350Z,3.33
2023-01-25T12:24:41.057Z,3.30
2023-01-25T12:28:05.775Z,3.23
2023-01-25T12:31:28.998Z,3.28
2023-01-25T12:34:38.167Z,3.40
2023-01-25T12:37:43.200Z,3.42
2023-01-25T12:40:52.931Z,3.28
2023-01-25T12:44:03.229Z,3.27
2023-01-25T12:47:22.119Z,3.26
2023-01-25T12:50:30.651Z,3.28
2023-01-25T12:53:41.729Z,3.21
2023-01-25T12:56:54.006Z,3.37
2023-01-25T13:00:07.317Z,3.66
2023-01-25T13:03:25.040Z,3.67
2023-01-25T13:06:32.310Z,3.54
2023-01-25T13:09:44.358Z,3.40
2023-01-25T13:12:53.874Z,3.45
2023-01-25T13:15:55.804Z,3.50
2023-01-25T13:18:58.340Z,3.59
2023-01-25T13:22:00.453Z,3.58
2023-01-25T13:25:01.801Z,3.61
2023-01-25T13:28:41.578Z,3.39
2023-01-25T13:31:51.992Z,3.40
2023-01-25T13:34:54.238Z,3.56
2023-01-25T13:38:17.396Z,3.64
2023-01-25T13:41:18.952Z,3.57
2023-01-25T13:44:28.305Z,3.61
2023-01-25T13:47:35.810Z,3.71
2023-01-25T13:50:40.086Z,3.67
2023-01-25T13:53:43.217Z,3.78
2023-01-25T13:56:45.143Z,3.67
2023-01-25T13:59:46.889Z,3.68
2023-01-25T14:02:54.923Z,3.61
2023-01-25T14:05:59.287Z,3.54
2023-01-25T14:09:07.457Z,3.47
2023-01-25T14:12:11.261Z,3.43
2023-01-25T14:15:26.468Z,3.48
2023-01-25T14:18:37.742Z,3.40
2023-01-25T14:21:39.603Z,3.40
2023-01-25T14:24:41.085Z,3.49
2023-01-25T14:27:42.422Z,3.40
2023-01-25T14:30:43.910Z,3.36
2023-01-25T14:33:48.081Z,3.37
2023-01-25T14:37:14.292Z,3.50
2023-01-25T14:40:22.126Z,3.45
2023-01-25T14:43:24.227Z,3.44
2023-01-25T14:46:29.908Z,3.56
2023-01-25T14:49:31.336Z,3.45
2023-01-25T14:52:32.744Z,3.42
2023-01-25T14:55:36.067Z,3.35
2023-01-25T14:58:38.589Z,3.35
2023-01-25T15:01:41.170Z,3.35
2023-01-25T15:05:15.112Z,3.31
2023-01-25T15:08:34.670Z,3.38
2023-01-25T15:11:45.349Z,3.40
2023-01-25T15:14:49.302Z,3.39
2023-01-25T15:17:50.970Z,3.35
2023-01-25T15:20:52.371Z,3.34
2023-01-25T15:23:55.501Z,3.32
2023-01-25T15:26:57.063Z,3.27
2023-01-25T15:29:59.259Z,3.23
2023-01-25T15:33:01.832Z,3.26
2023-01-25T15:36:03.421Z,3.28
2023-01-25T15:39:06.191Z,3.31
2023-01-25T15:42:08.941Z,3.27
2023-01-25T15:45:10.848Z,3.29
2023-01-25T15:48:15.818Z,3.20
2023-01-25T15:51:18.184Z,3.24
2023-01-25T15:54:20.094Z,3.18
2023-01-25T15:57:31.224Z,3.14
2023-01-25T16:00:33.455Z,3.15
2023-01-25T16:03:34.931Z,3.07
2023-01-25T16:06:47.479Z,3.00
2023-01-25T16:09:49.975Z,2.94
2023-01-25T16:12:51.628Z,2.90
2023-01-25T16:15:55.722Z,2.88
2023-01-25T16:18:57.286Z,2.95
2023-01-25T16:21:58.757Z,2.95
2023-01-25T16:25:01.079Z,3.08
2023-01-25T16:28:02.489Z,3.08
2023-01-25T16:31:03.945Z,3.08
2023-01-25T16:34:05.419Z,3.06
2023-01-25T16:37:06.812Z,2.98
2023-01-25T16:40:38.625Z,2.86
2023-01-25T16:43:43.046Z,2.78
2023-01-25T16:46:45.086Z,2.66
2023-01-25T16:49:46.524Z,2.65
2023-01-25T16:52:51.251Z,2.69
2023-01-25T16:55:52.753Z,2.81
2023-01-25T16:58:56.349Z,2.82
2023-01-25T17:01:57.971Z,2.82
2023-01-25T17:04:59.447Z,2.90
2023-01-25T17:08:01.100Z,3.04
2023-01-25T17:11:04.717Z,3.17
2023-01-25T17:14:06.637Z,3.15
2023-01-25T17:17:08.011Z,3.29
2023-01-25T17:20:10.505Z,3.30
2023-01-25T17:23:12.130Z,3.35
2023-01-25T17:26:16.351Z,3.25
2023-01-25T17:29:17.887Z,3.20
2023-01-25T17:32:19.351Z,3.20
2023-01-25T17:35:20.836Z,3.12
2023-01-25T17:38:23.599Z,3.23
2023-01-25T17:41:25.239Z,3.13
2023-01-25T17:44:26.686Z,3.05
2023-01-25T17:47:28.245Z,3.00
2023-01-25T17:50:30.054Z,2.94
2023-01-25T17:53:31.664Z,3.05
2023-01-25T17:56:33.529Z,3.12
2023-01-25T17:59:34.942Z,3.06
2023-01-25T18:02:36.422Z,3.06
2023-01-25T18:05:37.859Z,3.20
2023-01-25T18:08:45.364Z,3.16
2023-01-25T18:11:47.839Z,3.25
2023-01-25T18:14:49.403Z,3.28
2023-01-25T18:17:50.796Z,3.26
2023-01-25T18:20:52.675Z,3.29
2023-01-25T18:23:57.459Z,3.36
2023-01-25T18:27:03.604Z,3.21
2023-01-25T18:30:30.226Z,2.98
2023-01-25T18:33:33.167Z,2.88
2023-01-25T18:36:34.578Z,2.88
2023-01-25T18:39:36.039Z,2.89
2023-01-25T18:42:37.428Z,2.83
2023-01-25T18:45:39.185Z,2.85
2023-01-25T18:48:40.813Z,2.95
2023-01-25T18:52:02.240Z,3.04
2023-01-25T18:55:06.404Z,2.68
2023-01-25T18:58:12.171Z,2.53
2023-01-25T19:01:22.927Z,2.47
2023-01-25T19:04:24.433Z,2.52
2023-01-25T19:07:25.879Z,2.53
2023-01-25T19:10:27.360Z,2.60
2023-01-25T19:13:32.019Z,2.50
2023-01-25T19:16:33.848Z,2.43
2023-01-25T19:19:35.305Z,2.54
2023-01-25T19:22:36.755Z,2.68
2023-01-25T19:25:38.132Z,2.66
2023-01-25T19:28:40.157Z,2.67
2023-01-25T19:31:41.895Z,2.70
2023-01-25T19:34:43.461Z,2.77
2023-01-25T19:37:45.036Z,2.76
2023-01-25T19:40:46.491Z,2.68
2023-01-25T19:43:51.920Z,2.53
2023-01-25T19:46:53.328Z,2.49
2023-01-25T19:49:56.457Z,2.61
2023-01-25T19:52:58.025Z,2.66
2023-01-25T19:56:06.564Z,2.70
2023-01-25T19:59:16.492Z,2.88
2023-01-25T20:02:17.983Z,2.76
2023-01-25T20:05:20.894Z,2.71
2023-01-25T20:08:22.319Z,2.75
2023-01-25T20:11:26.090Z,2.71
2023-01-25T20:14:27.482Z,2.66
2023-01-25T20:17:28.911Z,2.68
2023-01-25T20:20:30.307Z,2.67
2023-01-25T20:23:33.744Z,2.72
2023-01-25T20:26:38.782Z,2.77
2023-01-25T20:29:40.291Z,2.71
2023-01-25T20:32:41.737Z,2.63
2023-01-25T20:35:43.447Z,2.66
2023-01-25T20:38:45.422Z,2.69
2023-01-25T20:41:47.236Z,2.81
2023-01-25T20:44:48.665Z,2.76
2023-01-25T20:47:50.166Z,2.74
2023-01-25T20:50:51.701Z,2.71
2023-01-25T20:53:54.647Z,2.69
2023-01-25T20:56:57.089Z,2.60
2023-01-25T20:59:58.531Z,2.61
2023-01-25T21:02:59.978Z,2.60
2023-01-25T21:06:01.448Z,2.63
2023-01-25T21:09:04.260Z,2.69
2023-01-25T21:12:05.965Z,2.69
2023-01-25T21:15:08.527Z,2.62
2023-01-25T21:18:10.300Z,2.59
2023-01-25T21:21:17.844Z,2.62
2023-01-25T21:24:19.440Z,2.61
2023-01-25T21:27:21.047Z,2.62
2023-01-25T21:30:23.244Z,2.61
2023-01-25T21:33:24.892Z,2.59
2023-01-25T21:36:26.768Z,2.53
2023-01-25T21:39:28.290Z,2.56
2023-01-25T21:42:32.141Z,2.55
2023-01-25T21:45:52.497Z,2.57
2023-01-25T21:49:16.846Z,2.51
2023-01-25T21:52:18.356Z,2.53
2023-01-25T21:55:19.767Z,2.50
2023-01-25T21:58:21.152Z,2.56
2023-01-25T22:01:23.265Z,2.72
2023-01-25T22:04:25.263Z,2.68
2023-01-25T22:07:26.717Z,2.61
2023-01-25T22:10:28.277Z,2.58
2023-01-25T22:13:31.033Z,2.60
2023-01-25T22:16:32.606Z,2.57
2023-01-25T22:19:34.028Z,2.58
2023-01-25T22:22:35.447Z,2.64
2023-01-25T22:25:36.831Z,2.60
2023-01-25T22:28:50.689Z,2.61
2023-01-25T22:31:52.244Z,2.64
2023-01-25T22:34:54.966Z,2.62
2023-01-25T22:37:56.343Z,2.60
2023-01-25T22:41:13.695Z,2.45
2023-01-25T22:44:15.120Z,2.48
2023-01-25T22:47:16.501Z,2.56
2023-01-25T22:50:17.939Z,2.64
2023-01-25T22:53:19.414Z,2.67
2023-01-25T22:56:24.374Z,2.65
2023-01-25T22:59:25.784Z,2.65
2023-01-25T23:02:27.170Z,2.73
2023-01-25T23:05:28.594Z,2.80
2023-01-25T23:08:33.628Z,2.82
2023-01-25T23:11:37.978Z,2.82
2023-01-25T23:14:51.475Z,2.90
2023-01-25T23:18:11.851Z,2.71
2023-01-25T23:21:13.694Z,2.70
2023-01-25T23:24:15.275Z,2.62
2023-01-25T23:27:16.781Z,2.59
2023-01-25T23:30:19.124Z,2.49
2023-01-25T23:33:20.505Z,2.46
2023-01-25T23:36:30.352Z,2.55
2023-01-25T23:39:31.762Z,2.45
2023-01-25T23:42:33.147Z,2.42
2023-01-25T23:45:34.540Z,2.50
2023-01-25T23:48:36.398Z,2.58
2023-01-25T23:51:37.895Z,2.46
2023-01-25T23:54:39.272Z,2.46
2023-01-25T23:57:40.716Z,2.56
